Estación Meteorológica Peña el Pijo (Robertgarden) [ 07/23/17 10:55:10 CEST ]

Fecha Hora Presion(HPa) Temp (°C) Humedad % Rocio (°C) Viento ( m/s) Direccion Lluvia 1Hora(mm) Lluvia 24H(mm) LLuvia Total(mm)
2017-Jul-03 01:01:44 1016.100 13.6 67 7.6         1427.60
2017-Jul-03 02:01:51 1016.000 12.2 71 7.1         1427.60
2017-Jul-03 03:01:31 1015.700 11.3 75 7.0         1427.60
2017-Jul-03 04:01:28 1015.600 10.4 77 6.5         1427.60
2017-Jul-03 05:01:29 1015.500 9.8 79 6.3         1427.60
2017-Jul-03 06:01:29 1015.300 9.3 81 6.2         1427.60
2017-Jul-03 07:01:42 1015.400 8.9 81 5.8         1427.60
2017-Jul-03 08:01:50 1015.600 12.2 84 9.6         1427.60
2017-Jul-03 09:01:38 1015.500 18.3 65 11.6         1427.60
2017-Jul-03 10:01:10 1015.600 22.9 48 11.2         1427.60
2017-Jul-03 11:01:44 1015.400 26.4 31 7.9         1427.60
2017-Jul-03 12:01:53 1015.200 27.3 31 8.7         1427.60
2017-Jul-03 13:01:54 1015.200 28.6 31 9.8 0.9 SSW     1427.60
2017-Jul-03 14:01:51 1015.000 28.1 28 7.7         1427.60
2017-Jul-03 15:01:50 1014.600 29.6 26 7.8         1427.60
2017-Jul-03 16:02:12 1014.200 30.6 26 8.7         1427.60
2017-Jul-03 17:01:46 1013.900 30.3 26 8.4         1427.60
2017-Jul-03 18:01:43 1013.700 29.5 27 8.4         1427.60
2017-Jul-03 19:01:47 1013.400 28.5 28 8.1         1427.60
2017-Jul-03 20:01:50 1013.500 26.6 30 7.6         1427.60
2017-Jul-03 21:01:46 1013.800 23.1 35 6.7         1427.60
2017-Jul-03 22:01:51 1013.900 20.9 42 7.5         1427.60
2017-Jul-03 23:08:47 1014.300 - - - - W     1427.60

Temperatura Máxima:30°    Temperatura Mínima:
Presión Máxima:1016.100 Hpa    Presión Mínima:1013.400 Hpa


Volver